sensor_id;sensor_type;location;lat;lon;timestamp;pressure;altitude;pressure_sealevel;temperature;humidity
75551;BME280;65071;53.082;18.218;2022-12-29T00:01:59;100640.61;;;6.69;78.94
75551;BME280;65071;53.082;18.218;2022-12-29T00:04:26;100640.44;;;6.65;79.52
75551;BME280;65071;53.082;18.218;2022-12-29T00:06:52;100635.29;;;6.62;79.51
75551;BME280;65071;53.082;18.218;2022-12-29T00:09:19;100627.89;;;6.57;79.79
75551;BME280;65071;53.082;18.218;2022-12-29T00:11:46;100626.98;;;6.51;80.03
75551;BME280;65071;53.082;18.218;2022-12-29T00:14:13;100626.81;;;6.46;80.03
75551;BME280;65071;53.082;18.218;2022-12-29T00:16:58;100618.17;;;6.49;80.41
75551;BME280;65071;53.082;18.218;2022-12-29T00:19:25;100607.24;;;6.45;80.26
75551;BME280;65071;53.082;18.218;2022-12-29T00:22:12;100604.52;;;6.44;80.68
75551;BME280;65071;53.082;18.218;2022-12-29T00:24:58;100610.66;;;6.45;80.86
75551;BME280;65071;53.082;18.218;2022-12-29T00:27:43;100610.49;;;6.39;80.92
75551;BME280;65071;53.082;18.218;2022-12-29T00:30:28;100602.98;;;6.37;81.06
75551;BME280;65071;53.082;18.218;2022-12-29T00:33:17;100601.00;;;6.39;81.21
75551;BME280;65071;53.082;18.218;2022-12-29T00:36:13;100595.02;;;6.40;81.30
75551;BME280;65071;53.082;18.218;2022-12-29T00:38:46;100594.92;;;6.35;81.63
75551;BME280;65071;53.082;18.218;2022-12-29T00:41:32;100595.63;;;6.31;81.73
75551;BME280;65071;53.082;18.218;2022-12-29T00:44:17;100594.83;;;6.34;81.78
75551;BME280;65071;53.082;18.218;2022-12-29T00:46:44;100593.59;;;6.34;82.09
75551;BME280;65071;53.082;18.218;2022-12-29T00:49:12;100603.69;;;6.35;82.10
75551;BME280;65071;53.082;18.218;2022-12-29T00:52:02;100605.52;;;6.32;82.45
75551;BME280;65071;53.082;18.218;2022-12-29T00:54:31;100605.18;;;6.26;82.90
75551;BME280;65071;53.082;18.218;2022-12-29T00:56:58;100602.20;;;6.27;82.60
75551;BME280;65071;53.082;18.218;2022-12-29T00:59:25;100600.27;;;6.31;82.41
75551;BME280;65071;53.082;18.218;2022-12-29T01:01:53;100597.46;;;6.30;82.70
75551;BME280;65071;53.082;18.218;2022-12-29T01:04:24;100599.77;;;6.30;82.55
75551;BME280;65071;53.082;18.218;2022-12-29T01:06:52;100595.91;;;6.28;82.73
75551;BME280;65071;53.082;18.218;2022-12-29T01:09:19;100603.02;;;6.26;82.72
75551;BME280;65071;53.082;18.218;2022-12-29T01:12:05;100604.35;;;6.31;82.66
75551;BME280;65071;53.082;18.218;2022-12-29T01:14:33;100599.71;;;6.35;82.73
75551;BME280;65071;53.082;18.218;2022-12-29T01:16:59;100594.12;;;6.30;82.85
75551;BME280;65071;53.082;18.218;2022-12-29T01:19:26;100598.42;;;6.26;82.98
75551;BME280;65071;53.082;18.218;2022-12-29T01:21:55;100597.41;;;6.27;82.78
75551;BME280;65071;53.082;18.218;2022-12-29T01:24:22;100596.85;;;6.31;82.84
75551;BME280;65071;53.082;18.218;2022-12-29T01:26:49;100599.10;;;6.32;82.95
75551;BME280;65071;53.082;18.218;2022-12-29T01:29:16;100595.75;;;6.32;83.34
75551;BME280;65071;53.082;18.218;2022-12-29T01:31:45;100586.17;;;6.29;82.90
75551;BME280;65071;53.082;18.218;2022-12-29T01:34:12;100587.71;;;6.25;82.87
75551;BME280;65071;53.082;18.218;2022-12-29T01:36:39;100589.14;;;6.28;82.92
75551;BME280;65071;53.082;18.218;2022-12-29T01:39:06;100587.95;;;6.31;82.97
75551;BME280;65071;53.082;18.218;2022-12-29T01:41:32;100598.02;;;6.30;83.01
75551;BME280;65071;53.082;18.218;2022-12-29T01:44:00;100596.02;;;6.26;83.17
75551;BME280;65071;53.082;18.218;2022-12-29T01:46:31;100587.24;;;6.23;83.09
75551;BME280;65071;53.082;18.218;2022-12-29T01:49:13;100585.03;;;6.21;82.93
75551;BME280;65071;53.082;18.218;2022-12-29T01:51:45;100576.65;;;6.21;83.41
75551;BME280;65071;53.082;18.218;2022-12-29T01:54:21;100572.39;;;6.23;83.16
75551;BME280;65071;53.082;18.218;2022-12-29T01:56:51;100564.89;;;6.21;83.24
75551;BME280;65071;53.082;18.218;2022-12-29T01:59:22;100565.42;;;6.17;83.13
75551;BME280;65071;53.082;18.218;2022-12-29T02:01:50;100565.52;;;6.16;83.04
75551;BME280;65071;53.082;18.218;2022-12-29T02:04:17;100559.42;;;6.16;83.24
75551;BME280;65071;53.082;18.218;2022-12-29T02:06:54;100549.52;;;6.17;83.14
75551;BME280;65071;53.082;18.218;2022-12-29T02:09:22;100548.61;;;6.17;83.16
75551;BME280;65071;53.082;18.218;2022-12-29T02:11:51;100543.02;;;6.14;83.21
75551;BME280;65071;53.082;18.218;2022-12-29T02:14:18;100542.39;;;6.12;83.33
75551;BME280;65071;53.082;18.218;2022-12-29T02:22:16;100525.09;;;6.20;83.14
75551;BME280;65071;53.082;18.218;2022-12-29T02:30:50;100506.40;;;6.22;82.79
75551;BME280;65071;53.082;18.218;2022-12-29T02:36:33;100496.80;;;6.29;82.52
75551;BME280;65071;53.082;18.218;2022-12-29T02:39:41;100487.23;;;6.25;82.54
75551;BME280;65071;53.082;18.218;2022-12-29T02:42:19;100478.39;;;6.26;82.59
75551;BME280;65071;53.082;18.218;2022-12-29T02:45:05;100476.73;;;6.29;82.57
75551;BME280;65071;53.082;18.218;2022-12-29T02:47:54;100475.66;;;6.30;82.64
75551;BME280;65071;53.082;18.218;2022-12-29T02:50:28;100471.04;;;6.30;82.30
75551;BME280;65071;53.082;18.218;2022-12-29T02:53:00;100471.06;;;6.28;82.07
75551;BME280;65071;53.082;18.218;2022-12-29T02:55:28;100471.06;;;6.28;82.07
75551;BME280;65071;53.082;18.218;2022-12-29T02:58:17;100462.11;;;6.32;82.10
75551;BME280;65071;53.082;18.218;2022-12-29T03:09:17;100467.50;;;6.38;81.45
75551;BME280;65071;53.082;18.218;2022-12-29T03:11:59;100463.63;;;6.35;81.41
75551;BME280;65071;53.082;18.218;2022-12-29T03:20:26;100466.36;;;6.33;81.43
75551;BME280;65071;53.082;18.218;2022-12-29T03:23:00;100468.52;;;6.34;81.41
75551;BME280;65071;53.082;18.218;2022-12-29T03:25:41;100469.73;;;6.39;81.35
75551;BME280;65071;53.082;18.218;2022-12-29T03:28:18;100467.87;;;6.40;81.45
75551;BME280;65071;53.082;18.218;2022-12-29T03:30:47;100467.30;;;6.36;81.62
75551;BME280;65071;53.082;18.218;2022-12-29T03:33:17;100468.83;;;6.33;81.54
75551;BME280;65071;53.082;18.218;2022-12-29T03:35:46;100470.16;;;6.34;81.62
75551;BME280;65071;53.082;18.218;2022-12-29T03:41:05;100459.67;;;6.31;82.06
75551;BME280;65071;53.082;18.218;2022-12-29T03:43:34;100454.48;;;6.35;81.82
75551;BME280;65071;53.082;18.218;2022-12-29T03:46:01;100454.98;;;6.32;82.05
75551;BME280;65071;53.082;18.218;2022-12-29T03:48:28;100453.05;;;6.27;82.08
75551;BME280;65071;53.082;18.218;2022-12-29T03:50:55;100452.33;;;6.26;82.20
75551;BME280;65071;53.082;18.218;2022-12-29T03:53:22;100452.77;;;6.25;82.26
75551;BME280;65071;53.082;18.218;2022-12-29T03:55:49;100454.77;;;6.26;82.51
75551;BME280;65071;53.082;18.218;2022-12-29T03:58:16;100454.05;;;6.32;82.36
75551;BME280;65071;53.082;18.218;2022-12-29T04:01:01;100449.18;;;6.35;82.43
75551;BME280;65071;53.082;18.218;2022-12-29T04:03:28;100443.23;;;6.32;82.46
75551;BME280;65071;53.082;18.218;2022-12-29T04:05:56;100443.61;;;6.27;82.51
75551;BME280;65071;53.082;18.218;2022-12-29T04:08:23;100433.08;;;6.37;82.29
75551;BME280;65071;53.082;18.218;2022-12-29T04:10:49;100434.02;;;6.37;82.34
75551;BME280;65071;53.082;18.218;2022-12-29T04:13:18;100433.48;;;6.39;82.39
75551;BME280;65071;53.082;18.218;2022-12-29T04:15:44;100433.36;;;6.32;82.50
75551;BME280;65071;53.082;18.218;2022-12-29T04:18:12;100435.95;;;6.31;82.52
75551;BME280;65071;53.082;18.218;2022-12-29T04:20:39;100432.48;;;6.36;82.52
75551;BME280;65071;53.082;18.218;2022-12-29T04:23:24;100425.90;;;6.38;82.49
75551;BME280;65071;53.082;18.218;2022-12-29T04:25:50;100421.82;;;6.33;82.62
75551;BME280;65071;53.082;18.218;2022-12-29T04:28:17;100419.15;;;6.29;82.64
75551;BME280;65071;53.082;18.218;2022-12-29T04:30:49;100417.45;;;6.28;82.73
75551;BME280;65071;53.082;18.218;2022-12-29T04:33:22;100416.36;;;6.38;82.47
75551;BME280;65071;53.082;18.218;2022-12-29T04:35:48;100419.19;;;6.39;82.54
75551;BME280;65071;53.082;18.218;2022-12-29T04:38:15;100416.81;;;6.37;82.40
75551;BME280;65071;53.082;18.218;2022-12-29T04:40:43;100414.55;;;6.32;82.56
75551;BME280;65071;53.082;18.218;2022-12-29T04:43:11;100409.02;;;6.35;82.39
75551;BME280;65071;53.082;18.218;2022-12-29T04:45:56;100408.69;;;6.36;82.32
75551;BME280;65071;53.082;18.218;2022-12-29T04:48:30;100408.70;;;6.36;82.44
75551;BME280;65071;53.082;18.218;2022-12-29T04:51:11;100408.05;;;6.35;82.55
75551;BME280;65071;53.082;18.218;2022-12-29T04:53:39;100410.16;;;6.32;82.60
75551;BME280;65071;53.082;18.218;2022-12-29T04:56:06;100415.41;;;6.33;82.37
75551;BME280;65071;53.082;18.218;2022-12-29T04:58:33;100407.87;;;6.36;82.29
75551;BME280;65071;53.082;18.218;2022-12-29T05:00:59;100405.16;;;6.38;82.34
75551;BME280;65071;53.082;18.218;2022-12-29T05:03:29;100407.50;;;6.36;82.43
75551;BME280;65071;53.082;18.218;2022-12-29T05:05:56;100405.92;;;6.37;82.16
75551;BME280;65071;53.082;18.218;2022-12-29T05:08:24;100402.40;;;6.37;82.11
75551;BME280;65071;53.082;18.218;2022-12-29T05:10:52;100399.73;;;6.35;81.76
75551;BME280;65071;53.082;18.218;2022-12-29T05:13:18;100397.70;;;6.37;81.90
75551;BME280;65071;53.082;18.218;2022-12-29T05:15:51;100399.27;;;6.40;81.86
75551;BME280;65071;53.082;18.218;2022-12-29T05:18:18;100398.98;;;6.43;81.90
75551;BME280;65071;53.082;18.218;2022-12-29T05:20:45;100400.14;;;6.42;81.81
75551;BME280;65071;53.082;18.218;2022-12-29T05:23:13;100401.67;;;6.41;81.63
75551;BME280;65071;53.082;18.218;2022-12-29T05:25:40;100400.40;;;6.45;81.77
75551;BME280;65071;53.082;18.218;2022-12-29T05:28:27;100398.40;;;6.55;81.35
75551;BME280;65071;53.082;18.218;2022-12-29T05:30:59;100394.26;;;6.52;81.29
75551;BME280;65071;53.082;18.218;2022-12-29T05:33:26;100383.30;;;6.50;81.28
75551;BME280;65071;53.082;18.218;2022-12-29T05:35:52;100374.31;;;6.53;81.05
75551;BME280;65071;53.082;18.218;2022-12-29T05:38:19;100370.54;;;6.57;81.17
75551;BME280;65071;53.082;18.218;2022-12-29T05:40:46;100368.58;;;6.61;80.98
75551;BME280;65071;53.082;18.218;2022-12-29T05:43:31;100367.36;;;6.59;80.77
75551;BME280;65071;53.082;18.218;2022-12-29T05:46:17;100359.55;;;6.54;81.05
75551;BME280;65071;53.082;18.218;2022-12-29T05:49:12;100354.46;;;6.61;81.01
75551;BME280;65071;53.082;18.218;2022-12-29T05:51:58;100353.20;;;6.61;80.83
75551;BME280;65071;53.082;18.218;2022-12-29T05:54:24;100352.04;;;6.56;81.01
75551;BME280;65071;53.082;18.218;2022-12-29T05:56:51;100348.70;;;6.56;80.91
75551;BME280;65071;53.082;18.218;2022-12-29T05:59:18;100343.73;;;6.65;80.79
75551;BME280;65071;53.082;18.218;2022-12-29T06:01:45;100346.39;;;6.66;80.95
75551;BME280;65071;53.082;18.218;2022-12-29T06:04:12;100336.73;;;6.66;80.86
75551;BME280;65071;53.082;18.218;2022-12-29T06:06:38;100330.48;;;6.64;80.76
75551;BME280;65071;53.082;18.218;2022-12-29T06:09:06;100332.95;;;6.64;81.09
75551;BME280;65071;53.082;18.218;2022-12-29T06:11:32;100333.13;;;6.68;80.68
75551;BME280;65071;53.082;18.218;2022-12-29T06:14:00;100336.46;;;6.72;80.74
75551;BME280;65071;53.082;18.218;2022-12-29T06:16:26;100335.81;;;6.70;80.64
75551;BME280;65071;53.082;18.218;2022-12-29T06:18:57;100345.26;;;6.68;80.35
75551;BME280;65071;53.082;18.218;2022-12-29T06:21:23;100350.02;;;6.73;80.49
75551;BME280;65071;53.082;18.218;2022-12-29T06:23:50;100362.86;;;6.83;80.21
75551;BME280;65071;53.082;18.218;2022-12-29T06:26:16;100364.08;;;6.81;80.32
75551;BME280;65071;53.082;18.218;2022-12-29T06:28:43;100359.92;;;6.80;80.02
75551;BME280;65071;53.082;18.218;2022-12-29T06:31:10;100356.05;;;6.79;80.06
75551;BME280;65071;53.082;18.218;2022-12-29T06:33:38;100337.81;;;6.89;80.09
75551;BME280;65071;53.082;18.218;2022-12-29T06:36:04;100331.73;;;6.89;79.83
75551;BME280;65071;53.082;18.218;2022-12-29T06:38:31;100325.73;;;6.82;79.86
75551;BME280;65071;53.082;18.218;2022-12-29T06:40:59;100327.10;;;6.79;79.66
75551;BME280;65071;53.082;18.218;2022-12-29T06:43:45;100329.37;;;6.83;79.20
75551;BME280;65071;53.082;18.218;2022-12-29T06:46:21;100333.29;;;6.89;79.41
75551;BME280;65071;53.082;18.218;2022-12-29T06:48:47;100331.42;;;6.86;79.31
75551;BME280;65071;53.082;18.218;2022-12-29T06:51:14;100334.84;;;6.82;79.40
75551;BME280;65071;53.082;18.218;2022-12-29T06:53:40;100341.71;;;6.81;79.22
75551;BME280;65071;53.082;18.218;2022-12-29T06:56:07;100339.82;;;6.88;79.35
75551;BME280;65071;53.082;18.218;2022-12-29T06:58:34;100344.92;;;6.93;79.16
75551;BME280;65071;53.082;18.218;2022-12-29T07:01:00;100348.66;;;6.93;79.01
75551;BME280;65071;53.082;18.218;2022-12-29T07:03:27;100357.11;;;6.92;78.89
75551;BME280;65071;53.082;18.218;2022-12-29T07:05:53;100356.80;;;6.92;78.72
75551;BME280;65071;53.082;18.218;2022-12-29T07:08:20;100353.00;;;6.93;78.76
75551;BME280;65071;53.082;18.218;2022-12-29T07:10:47;100347.94;;;7.03;78.73
75551;BME280;65071;53.082;18.218;2022-12-29T07:13:14;100345.05;;;7.07;78.51
75551;BME280;65071;53.082;18.218;2022-12-29T07:15:40;100351.52;;;7.05;78.13
75551;BME280;65071;53.082;18.218;2022-12-29T07:18:07;100351.60;;;7.04;78.21
75551;BME280;65071;53.082;18.218;2022-12-29T07:20:33;100351.33;;;7.05;78.12
75551;BME280;65071;53.082;18.218;2022-12-29T07:23:00;100366.20;;;7.12;77.77
75551;BME280;65071;53.082;18.218;2022-12-29T07:25:26;100368.02;;;7.18;77.71
75551;BME280;65071;53.082;18.218;2022-12-29T07:27:54;100363.20;;;7.16;77.45
75551;BME280;65071;53.082;18.218;2022-12-29T07:30:20;100350.77;;;7.15;77.27
75551;BME280;65071;53.082;18.218;2022-12-29T07:32:47;100347.42;;;7.20;77.38
75551;BME280;65071;53.082;18.218;2022-12-29T07:35:13;100354.48;;;7.31;76.63
75551;BME280;65071;53.082;18.218;2022-12-29T07:37:40;100362.66;;;7.37;76.63
75551;BME280;65071;53.082;18.218;2022-12-29T07:40:08;100364.41;;;7.37;76.49
75551;BME280;65071;53.082;18.218;2022-12-29T07:42:35;100367.77;;;7.38;76.33
75551;BME280;65071;53.082;18.218;2022-12-29T07:45:02;100364.48;;;7.43;76.29
75551;BME280;65071;53.082;18.218;2022-12-29T07:47:49;100355.02;;;7.57;76.10
75551;BME280;65071;53.082;18.218;2022-12-29T07:50:16;100346.94;;;7.63;75.79
75551;BME280;65071;53.082;18.218;2022-12-29T07:52:43;100346.48;;;7.60;75.47
75551;BME280;65071;53.082;18.218;2022-12-29T07:55:10;100339.95;;;7.59;75.31
75551;BME280;65071;53.082;18.218;2022-12-29T07:57:36;100340.59;;;7.59;75.52
75551;BME280;65071;53.082;18.218;2022-12-29T08:00:03;100339.42;;;7.67;75.25
75551;BME280;65071;53.082;18.218;2022-12-29T08:02:38;100337.98;;;7.65;75.10
75551;BME280;65071;53.082;18.218;2022-12-29T08:05:05;100330.15;;;7.63;74.84
75551;BME280;65071;53.082;18.218;2022-12-29T08:07:32;100328.74;;;7.64;74.77
75551;BME280;65071;53.082;18.218;2022-12-29T08:09:58;100328.80;;;7.67;74.56
75551;BME280;65071;53.082;18.218;2022-12-29T08:12:25;100320.08;;;7.74;74.58
75551;BME280;65071;53.082;18.218;2022-12-29T08:14:52;100319.19;;;7.80;74.53
75551;BME280;65071;53.082;18.218;2022-12-29T08:17:18;100327.38;;;7.86;74.41
75551;BME280;65071;53.082;18.218;2022-12-29T08:19:45;100330.02;;;7.97;74.00
75551;BME280;65071;53.082;18.218;2022-12-29T08:22:13;100334.75;;;8.04;73.90
75551;BME280;65071;53.082;18.218;2022-12-29T08:24:40;100340.48;;;8.17;73.70
75551;BME280;65071;53.082;18.218;2022-12-29T08:27:07;100338.20;;;8.24;74.20
75551;BME280;65071;53.082;18.218;2022-12-29T08:29:33;100339.56;;;8.34;73.55
75551;BME280;65071;53.082;18.218;2022-12-29T08:32:00;100344.08;;;8.44;72.61
75551;BME280;65071;53.082;18.218;2022-12-29T08:34:26;100337.57;;;8.48;72.97
75551;BME280;65071;53.082;18.218;2022-12-29T08:36:53;100336.07;;;8.63;72.72
75551;BME280;65071;53.082;18.218;2022-12-29T08:39:19;100340.57;;;8.72;71.82
75551;BME280;65071;53.082;18.218;2022-12-29T08:41:46;100345.43;;;8.70;71.65
75551;BME280;65071;53.082;18.218;2022-12-29T08:44:13;100348.73;;;8.66;71.84
75551;BME280;65071;53.082;18.218;2022-12-29T08:46:39;100347.23;;;8.58;71.92
75551;BME280;65071;53.082;18.218;2022-12-29T08:49:06;100357.52;;;8.57;72.33
75551;BME280;65071;53.082;18.218;2022-12-29T08:51:32;100359.13;;;8.64;72.11
75551;BME280;65071;53.082;18.218;2022-12-29T08:53:59;100358.38;;;8.72;72.15
75551;BME280;65071;53.082;18.218;2022-12-29T08:56:26;100359.41;;;8.72;71.89
75551;BME280;65071;53.082;18.218;2022-12-29T08:58:54;100360.75;;;8.74;71.85
75551;BME280;65071;53.082;18.218;2022-12-29T09:01:21;100358.56;;;8.76;71.47
75551;BME280;65071;53.082;18.218;2022-12-29T09:03:48;100356.09;;;8.81;71.29
75551;BME280;65071;53.082;18.218;2022-12-29T09:06:16;100348.43;;;8.93;71.12
75551;BME280;65071;53.082;18.218;2022-12-29T09:08:44;100347.00;;;8.95;70.77
75551;BME280;65071;53.082;18.218;2022-12-29T09:11:17;100345.10;;;8.94;70.73
75551;BME280;65071;53.082;18.218;2022-12-29T09:13:45;100355.09;;;8.87;70.63
75551;BME280;65071;53.082;18.218;2022-12-29T09:16:12;100357.77;;;8.80;70.61
75551;BME280;65071;53.082;18.218;2022-12-29T09:18:39;100354.42;;;8.76;70.84
75551;BME280;65071;53.082;18.218;2022-12-29T09:21:06;100352.21;;;8.76;70.88
75551;BME280;65071;53.082;18.218;2022-12-29T09:23:33;100353.17;;;8.70;70.99
75551;BME280;65071;53.082;18.218;2022-12-29T09:26:00;100347.03;;;8.61;71.01
75551;BME280;65071;53.082;18.218;2022-12-29T09:28:27;100347.63;;;8.57;71.11
75551;BME280;65071;53.082;18.218;2022-12-29T09:30:56;100348.05;;;8.56;71.41
75551;BME280;65071;53.082;18.218;2022-12-29T09:33:23;100349.80;;;8.62;71.16
75551;BME280;65071;53.082;18.218;2022-12-29T09:35:55;100345.67;;;8.57;71.54
75551;BME280;65071;53.082;18.218;2022-12-29T09:38:23;100339.38;;;8.55;71.39
75551;BME280;65071;53.082;18.218;2022-12-29T09:40:52;100339.11;;;8.51;71.36
75551;BME280;65071;53.082;18.218;2022-12-29T09:43:33;100337.03;;;8.48;71.35
75551;BME280;65071;53.082;18.218;2022-12-29T09:46:23;100341.91;;;8.61;71.61
75551;BME280;65071;53.082;18.218;2022-12-29T09:48:59;100344.73;;;8.61;71.51
75551;BME280;65071;53.082;18.218;2022-12-29T09:51:31;100339.05;;;8.55;71.29
75551;BME280;65071;53.082;18.218;2022-12-29T09:54:07;100335.42;;;8.52;71.52
75551;BME280;65071;53.082;18.218;2022-12-29T09:56:42;100328.37;;;8.49;71.39
75551;BME280;65071;53.082;18.218;2022-12-29T09:59:19;100324.05;;;8.51;71.59
75551;BME280;65071;53.082;18.218;2022-12-29T10:01:55;100320.17;;;8.67;71.28
75551;BME280;65071;53.082;18.218;2022-12-29T10:04:27;100321.08;;;8.70;71.08
75551;BME280;65071;53.082;18.218;2022-12-29T10:06:57;100325.15;;;8.67;70.99
75551;BME280;65071;53.082;18.218;2022-12-29T10:09:43;100323.08;;;8.68;71.07
75551;BME280;65071;53.082;18.218;2022-12-29T10:12:34;100327.45;;;8.67;71.21
75551;BME280;65071;53.082;18.218;2022-12-29T10:15:32;100326.47;;;8.74;71.12
75551;BME280;65071;53.082;18.218;2022-12-29T10:21:04;100317.06;;;8.91;70.17
75551;BME280;65071;53.082;18.218;2022-12-29T10:23:47;100312.13;;;8.92;70.19
75551;BME280;65071;53.082;18.218;2022-12-29T10:26:20;100309.16;;;8.98;70.00
75551;BME280;65071;53.082;18.218;2022-12-29T10:31:21;100301.11;;;9.19;70.03
75551;BME280;65071;53.082;18.218;2022-12-29T10:33:56;100306.54;;;9.27;69.56
75551;BME280;65071;53.082;18.218;2022-12-29T10:36:40;100302.41;;;9.29;69.24
75551;BME280;65071;53.082;18.218;2022-12-29T10:39:25;100300.42;;;9.29;69.14
75551;BME280;65071;53.082;18.218;2022-12-29T10:41:59;100304.19;;;9.23;69.28
75551;BME280;65071;53.082;18.218;2022-12-29T10:44:31;100305.37;;;9.21;69.29
75551;BME280;65071;53.082;18.218;2022-12-29T10:47:14;100304.00;;;9.25;69.27
75551;BME280;65071;53.082;18.218;2022-12-29T10:49:45;100301.58;;;9.35;69.30
75551;BME280;65071;53.082;18.218;2022-12-29T10:52:16;100296.47;;;9.30;69.47
75551;BME280;65071;53.082;18.218;2022-12-29T10:54:54;100301.19;;;9.35;69.08
75551;BME280;65071;53.082;18.218;2022-12-29T10:57:39;100305.52;;;9.36;69.27
75551;BME280;65071;53.082;18.218;2022-12-29T11:05:51;100289.52;;;9.46;69.11
75551;BME280;65071;53.082;18.218;2022-12-29T11:08:26;100280.39;;;9.45;68.70
75551;BME280;65071;53.082;18.218;2022-12-29T11:11:01;100279.65;;;9.61;68.34
75551;BME280;65071;53.082;18.218;2022-12-29T11:13:31;100274.84;;;9.88;68.08
75551;BME280;65071;53.082;18.218;2022-12-29T11:15:58;100277.25;;;10.18;66.97
75551;BME280;65071;53.082;18.218;2022-12-29T11:18:39;100272.26;;;10.36;66.63
75551;BME280;65071;53.082;18.218;2022-12-29T11:21:23;100268.09;;;10.48;66.58
75551;BME280;65071;53.082;18.218;2022-12-29T11:23:56;100271.45;;;10.47;65.96
75551;BME280;65071;53.082;18.218;2022-12-29T11:26:24;100266.26;;;10.42;66.35
75551;BME280;65071;53.082;18.218;2022-12-29T11:31:47;100251.20;;;10.28;65.55
75551;BME280;65071;53.082;18.218;2022-12-29T11:34:19;100246.23;;;10.31;65.85
75551;BME280;65071;53.082;18.218;2022-12-29T11:36:48;100241.17;;;10.85;64.84
75551;BME280;65071;53.082;18.218;2022-12-29T11:39:32;100245.48;;;11.30;64.95
75551;BME280;65071;53.082;18.218;2022-12-29T11:42:01;100245.11;;;11.14;64.24
75551;BME280;65071;53.082;18.218;2022-12-29T11:44:38;100242.10;;;11.11;63.83
75551;BME280;65071;53.082;18.218;2022-12-29T11:47:10;100243.02;;;11.01;64.09
75551;BME280;65071;53.082;18.218;2022-12-29T11:49:38;100238.52;;;11.12;64.44
75551;BME280;65071;53.082;18.218;2022-12-29T11:52:06;100231.41;;;11.75;63.22
75551;BME280;65071;53.082;18.218;2022-12-29T11:54:35;100226.74;;;12.92;61.33
75551;BME280;65071;53.082;18.218;2022-12-29T11:57:12;100227.70;;;13.94;58.69
75551;BME280;65071;53.082;18.218;2022-12-29T11:59:42;100220.17;;;14.78;57.94
75551;BME280;65071;53.082;18.218;2022-12-29T12:02:25;100216.86;;;15.46;56.87
75551;BME280;65071;53.082;18.218;2022-12-29T12:05:03;100211.13;;;16.03;53.84
75551;BME280;65071;53.082;18.218;2022-12-29T12:07:42;100211.88;;;16.35;53.02
75551;BME280;65071;53.082;18.218;2022-12-29T12:10:27;100204.79;;;16.44;51.77
75551;BME280;65071;53.082;18.218;2022-12-29T12:13:27;100208.23;;;16.35;52.42
75551;BME280;65071;53.082;18.218;2022-12-29T12:16:02;100196.59;;;16.54;50.72
75551;BME280;65071;53.082;18.218;2022-12-29T12:18:41;100195.42;;;16.55;50.18
75551;BME280;65071;53.082;18.218;2022-12-29T12:21:13;100197.48;;;16.54;50.34
75551;BME280;65071;53.082;18.218;2022-12-29T12:26:22;100191.67;;;17.01;49.57
75551;BME280;65071;53.082;18.218;2022-12-29T12:29:13;100194.90;;;17.04;50.09
75551;BME280;65071;53.082;18.218;2022-12-29T12:31:49;100201.36;;;17.18;48.86
75551;BME280;65071;53.082;18.218;2022-12-29T12:34:24;100208.70;;;17.06;49.14
75551;BME280;65071;53.082;18.218;2022-12-29T13:02:06;100194.30;;;16.29;49.72
75551;BME280;65071;53.082;18.218;2022-12-29T13:10:35;100197.96;;;16.13;50.42
75551;BME280;65071;53.082;18.218;2022-12-29T13:18:48;100199.16;;;15.73;50.70
75551;BME280;65071;53.082;18.218;2022-12-29T13:26:48;100208.29;;;14.91;51.55
75551;BME280;65071;53.082;18.218;2022-12-29T13:35:32;100227.28;;;13.99;53.19
75551;BME280;65071;53.082;18.218;2022-12-29T13:40:56;100222.67;;;13.20;55.10
75551;BME280;65071;53.082;18.218;2022-12-29T13:43:29;100222.67;;;12.88;55.83
75551;BME280;65071;53.082;18.218;2022-12-29T13:46:27;100220.00;;;12.64;56.36
75551;BME280;65071;53.082;18.218;2022-12-29T13:49:05;100225.29;;;12.34;57.20
75551;BME280;65071;53.082;18.218;2022-12-29T13:51:34;100228.31;;;12.08;58.04
75551;BME280;65071;53.082;18.218;2022-12-29T14:02:31;100229.36;;;11.32;60.45
75551;BME280;65071;53.082;18.218;2022-12-29T14:05:26;100234.00;;;11.20;61.51
75551;BME280;65071;53.082;18.218;2022-12-29T14:08:03;100231.07;;;11.09;61.38
75551;BME280;65071;53.082;18.218;2022-12-29T14:10:45;100233.67;;;11.12;61.68
75551;BME280;65071;53.082;18.218;2022-12-29T14:15:45;100246.58;;;10.82;62.99
75551;BME280;65071;53.082;18.218;2022-12-29T14:18:21;100240.42;;;10.70;63.24
75551;BME280;65071;53.082;18.218;2022-12-29T14:23:28;100245.48;;;10.57;63.58
75551;BME280;65071;53.082;18.218;2022-12-29T14:28:37;100241.70;;;10.44;64.09
75551;BME280;65071;53.082;18.218;2022-12-29T14:36:38;100246.70;;;10.16;64.99
75551;BME280;65071;53.082;18.218;2022-12-29T14:47:27;100238.59;;;10.08;66.22
75551;BME280;65071;53.082;18.218;2022-12-29T14:50:18;100234.48;;;10.06;66.27
75551;BME280;65071;53.082;18.218;2022-12-29T14:52:56;100234.86;;;10.02;66.72
75551;BME280;65071;53.082;18.218;2022-12-29T14:55:43;100234.80;;;10.03;66.48
75551;BME280;65071;53.082;18.218;2022-12-29T14:58:17;100234.12;;;10.02;66.71
75551;BME280;65071;53.082;18.218;2022-12-29T15:00:46;100234.15;;;10.02;66.94
75551;BME280;65071;53.082;18.218;2022-12-29T15:05:48;100235.32;;;10.17;66.83
75551;BME280;65071;53.082;18.218;2022-12-29T15:08:18;100233.45;;;10.20;66.80
75551;BME280;65071;53.082;18.218;2022-12-29T15:11:16;100230.54;;;10.23;66.64
75551;BME280;65071;53.082;18.218;2022-12-29T15:13:44;100231.22;;;10.18;66.87
75551;BME280;65071;53.082;18.218;2022-12-29T15:16:23;100230.90;;;10.21;66.75
75551;BME280;65071;53.082;18.218;2022-12-29T15:18:50;100231.16;;;10.29;66.50
75551;BME280;65071;53.082;18.218;2022-12-29T15:21:25;100231.40;;;10.35;66.80
75551;BME280;65071;53.082;18.218;2022-12-29T15:23:52;100230.48;;;10.30;66.63
75551;BME280;65071;53.082;18.218;2022-12-29T15:26:20;100233.58;;;10.28;66.67